Time;durP1;ratioP1;P1;durP2;ratioP2;P2;SDS_P1;SDS_P2;PMS_P1;PMS_P2;Temp;Humidity;BMP_temperature;BMP_pressure;BME280_temperature;BME280_humidity;BME280_pressure;Samples;Min_cycle;Max_cycle;Signal;HPM_P1;HPM_P2
2022/05/10 00:02:38;;;;;;;19.58;15.57;;;11.40;99.90;;;;;;6213659;23;20020;-88
2022/05/10 00:05:38;;;;;;;20.55;15.48;;;11.40;99.90;;;;;;6214784;23;20020;-88
2022/05/10 00:08:26;;;;;;;18.33;15.30;;;11.40;99.90;;;;;;6216284;23;20029;-86
2022/05/10 00:11:13;;;;;;;19.25;14.52;;;11.40;99.90;;;;;;6216520;23;20090;-87
2022/05/10 00:14:03;;;;;;;20.10;15.55;;;11.40;99.90;;;;;;6195004;23;20032;-88
2022/05/10 00:16:51;;;;;;;18.52;14.05;;;11.50;99.90;;;;;;6215042;23;20127;-88
2022/05/10 00:19:38;;;;;;;18.05;13.70;;;11.50;99.90;;;;;;6215980;23;20024;-87
2022/05/10 00:22:25;;;;;;;16.48;14.02;;;11.40;99.90;;;;;;6195047;23;20025;-88
2022/05/10 00:25:15;;;;;;;20.83;14.98;;;11.30;99.90;;;;;;6198838;23;20056;-87
2022/05/10 00:28:03;;;;;;;19.63;15.00;;;11.20;99.90;;;;;;6213238;23;20024;-87
2022/05/10 00:30:53;;;;;;;21.90;17.10;;;11.10;99.90;;;;;;6215197;23;20086;-88
2022/05/10 00:33:43;;;;;;;19.80;15.68;;;10.90;99.90;;;;;;6196282;23;20048;-87
2022/05/10 00:36:31;;;;;;;19.70;16.38;;;10.90;99.90;;;;;;6215640;23;20090;-87
2022/05/10 00:39:18;;;;;;;24.25;18.05;;;10.80;99.90;;;;;;6213620;23;20032;-87
2022/05/10 00:42:13;;;;;;;27.10;18.02;;;10.70;99.90;;;;;;6193323;23;20025;-86
2022/05/10 00:45:12;;;;;;;24.25;17.85;;;10.70;99.90;;;;;;6214799;23;20036;-87
2022/05/10 00:48:19;;;;;;;22.35;18.67;;;10.70;99.90;;;;;;6216148;23;20027;-88
2022/05/10 00:51:30;;;;;;;23.77;18.77;;;10.70;99.90;;;;;;6213173;23;20071;-88
2022/05/10 00:54:38;;;;;;;23.80;18.60;;;10.80;99.90;;;;;;6214413;23;20120;-88
2022/05/10 00:57:34;;;;;;;22.30;18.60;;;10.70;99.90;;;;;;6215312;23;20020;-85
2022/05/10 01:00:31;;;;;;;23.10;18.27;;;10.70;99.90;;;;;;6213285;23;20455;-89
2022/05/10 01:03:29;;;;;;;21.65;18.23;;;10.80;99.90;;;;;;6213975;23;20078;-88
2022/05/10 01:06:16;;;;;;;22.80;18.13;;;10.90;99.90;;;;;;6221884;23;20024;-87
2022/05/10 01:09:19;;;;;;;19.42;15.20;;;10.90;99.90;;;;;;6230202;23;20025;-85
2022/05/10 01:12:28;;;;;;;17.33;15.43;;;10.90;99.90;;;;;;6232536;23;20322;-86
2022/05/10 01:15:19;;;;;;;19.55;15.85;;;10.90;99.90;;;;;;6230030;23;20029;-89
2022/05/10 01:18:09;;;;;;;23.35;16.70;;;10.80;99.90;;;;;;6228359;23;20088;-86
2022/05/10 01:21:29;;;;;;;19.90;17.13;;;10.80;99.90;;;;;;6214941;23;20032;-86
2022/05/10 01:24:28;;;;;;;23.92;17.13;;;10.70;99.90;;;;;;6127399;23;20100;-86
2022/05/10 01:27:43;;;;;;;22.88;18.35;;;10.60;99.90;;;;;;6216571;23;20400;-87
2022/05/10 01:30:31;;;;;;;18.63;16.63;;;10.60;99.90;;;;;;6214756;23;20035;-87
2022/05/10 01:33:30;;;;;;;21.10;17.50;;;10.50;99.90;;;;;;6217119;23;20040;-89
2022/05/10 01:36:25;;;;;;;22.88;17.95;;;10.40;99.90;;;;;;6226828;23;20025;-86
2022/05/10 01:39:39;;;;;;;22.88;20.10;;;10.30;99.90;;;;;;6202319;23;20120;-87
2022/05/10 01:42:32;;;;;;;26.55;19.70;;;10.30;99.90;;;;;;6215022;23;20094;-87
2022/05/10 01:45:43;;;;;;;25.27;20.17;;;10.20;99.90;;;;;;6214409;23;20086;-87
2022/05/10 01:48:36;;;;;;;23.25;19.30;;;10.20;99.90;;;;;;6216032;23;20130;-88
2022/05/10 01:51:31;;;;;;;22.83;19.58;;;10.20;99.90;;;;;;6216531;23;20029;-88
2022/05/10 01:54:41;;;;;;;26.10;20.38;;;10.20;99.90;;;;;;6215027;23;20041;-87
2022/05/10 01:57:32;;;;;;;24.20;20.17;;;10.30;99.90;;;;;;6215161;23;20025;-86
2022/05/10 02:00:22;;;;;;;27.48;21.45;;;10.30;99.90;;;;;;6192641;23;20313;-88
2022/05/10 02:03:16;;;;;;;26.30;21.17;;;10.30;99.90;;;;;;6194550;23;20024;-83
2022/05/10 02:06:24;;;;;;;25.73;21.55;;;10.20;99.90;;;;;;6214665;23;20020;-89
2022/05/10 02:09:37;;;;;;;27.80;22.33;;;10.20;99.90;;;;;;6203010;23;20409;-88
2022/05/10 02:12:24;;;;;;;28.48;21.88;;;10.20;99.90;;;;;;6226719;23;20025;-88
2022/05/10 02:15:12;;;;;;;24.45;21.40;;;10.20;99.90;;;;;;6218026;23;20047;-88
2022/05/10 02:18:27;;;;;;;27.20;21.23;;;10.10;99.90;;;;;;6215081;23;20313;-88
2022/05/10 02:21:22;;;;;;;32.08;21.48;;;10.20;99.90;;;;;;6218349;23;20067;-88
2022/05/10 02:24:15;;;;;;;26.05;21.42;;;10.20;99.90;;;;;;6215427;23;20075;-87
2022/05/10 02:27:06;;;;;;;23.15;19.08;;;10.30;99.90;;;;;;6194710;23;20136;-87
2022/05/10 02:30:06;;;;;;;20.17;17.73;;;10.20;99.90;;;;;;6215643;23;20059;-88
2022/05/10 02:33:06;;;;;;;21.17;18.40;;;10.20;99.90;;;;;;6216660;23;20025;-88
2022/05/10 02:35:58;;;;;;;21.00;16.35;;;10.10;99.90;;;;;;6215740;23;20413;-88
2022/05/10 02:38:47;;;;;;;18.70;16.45;;;10.00;99.90;;;;;;6216534;23;20040;-88
2022/05/10 02:41:34;;;;;;;28.17;18.30;;;10.00;99.90;;;;;;6194529;23;20031;-87
2022/05/10 02:44:21;;;;;;;25.67;20.20;;;9.90;99.90;;;;;;6195951;23;20024;-87
2022/05/10 02:47:10;;;;;;;21.80;19.05;;;10.00;99.90;;;;;;6217643;23;20047;-87
2022/05/10 02:49:57;;;;;;;24.73;19.17;;;10.10;99.90;;;;;;6217779;23;20071;-88
2022/05/10 02:52:44;;;;;;;23.30;18.50;;;10.10;99.90;;;;;;6215868;23;20033;-88
2022/05/10 02:55:47;;;;;;;22.60;19.08;;;10.10;99.90;;;;;;6195038;23;20036;-86
2022/05/10 02:58:55;;;;;;;26.20;18.27;;;10.00;99.90;;;;;;6190033;23;20107;-88
2022/05/10 03:01:52;;;;;;;22.00;18.02;;;10.00;99.90;;;;;;6189426;23;20032;-88
2022/05/10 03:04:49;;;;;;;19.90;16.95;;;9.90;99.90;;;;;;6186183;23;20394;-87
2022/05/10 03:07:38;;;;;;;20.20;17.80;;;9.80;99.90;;;;;;6189546;23;20036;-86
2022/05/10 03:10:25;;;;;;;18.75;16.70;;;9.70;99.90;;;;;;6187069;23;20029;-87
2022/05/10 03:13:13;;;;;;;23.13;17.67;;;9.60;99.90;;;;;;6184292;23;20029;-87
2022/05/10 03:16:01;;;;;;;24.58;18.70;;;9.60;99.90;;;;;;6184714;23;20436;-88
2022/05/10 03:18:52;;;;;;;20.65;18.17;;;9.50;99.90;;;;;;6184215;23;20278;-86
2022/05/10 03:21:42;;;;;;;22.55;18.17;;;9.50;99.90;;;;;;6187308;23;20032;-87
2022/05/10 03:24:30;;;;;;;25.30;19.60;;;9.40;99.90;;;;;;6184279;23;20076;-87
2022/05/10 03:27:18;;;;;;;25.25;19.98;;;9.30;99.90;;;;;;6186187;23;20025;-88
2022/05/10 03:30:05;;;;;;;25.60;19.15;;;9.30;99.90;;;;;;6185405;23;20033;-87
2022/05/10 03:32:55;;;;;;;25.67;20.17;;;9.30;99.90;;;;;;6187542;23;20103;-87
2022/05/10 03:35:45;;;;;;;26.30;20.52;;;9.30;99.90;;;;;;6187192;23;20357;-88
2022/05/10 03:38:33;;;;;;;31.88;20.00;;;9.20;99.90;;;;;;6185360;23;20303;-88
2022/05/10 03:41:22;;;;;;;22.38;19.08;;;9.20;99.90;;;;;;6185503;23;20021;-88
2022/05/10 03:44:09;;;;;;;26.13;20.77;;;9.20;99.90;;;;;;6184365;23;20056;-88
2022/05/10 03:46:57;;;;;;;33.03;22.20;;;9.20;99.90;;;;;;6187038;23;20044;-88
2022/05/10 03:49:46;;;;;;;33.70;25.48;;;9.20;99.90;;;;;;6185161;23;20294;-88
2022/05/10 03:52:40;;;;;;;35.83;27.35;;;9.30;99.90;;;;;;6187525;23;20444;-88
2022/05/10 03:55:28;;;;;;;30.73;24.75;;;9.50;99.90;;;;;;6188088;23;20021;-86
2022/05/10 03:58:15;;;;;;;34.70;22.48;;;9.60;99.90;;;;;;6216696;23;20020;-87
2022/05/10 04:01:07;;;;;;;27.63;22.33;;;9.60;99.90;;;;;;6232136;23;20043;-87
2022/05/10 04:03:55;;;;;;;30.58;22.40;;;9.60;99.90;;;;;;6230739;23;20063;-86
2022/05/10 04:06:45;;;;;;;27.55;22.92;;;9.60;99.90;;;;;;6231013;23;20028;-88
2022/05/10 04:09:35;;;;;;;28.45;22.67;;;9.60;99.90;;;;;;6230945;23;20040;-88
2022/05/10 04:12:25;;;;;;;27.33;22.13;;;9.60;99.90;;;;;;6219405;23;20013;-81
2022/05/10 04:15:16;;;;;;;27.27;22.08;;;9.60;99.90;;;;;;6242510;23;20013;-81
2022/05/10 04:18:03;;;;;;;30.55;23.90;;;9.60;99.90;;;;;;6243082;23;20039;-84
2022/05/10 04:20:51;;;;;;;30.05;22.30;;;9.50;99.90;;;;;;6239976;23;20048;-85
2022/05/10 04:23:39;;;;;;;26.83;20.73;;;9.60;99.90;;;;;;6239269;23;20035;-87
2022/05/10 04:26:31;;;;;;;24.70;20.83;;;9.60;99.90;;;;;;6243143;23;20025;-84
2022/05/10 04:29:19;;;;;;;25.70;20.48;;;9.60;99.90;;;;;;6239078;23;20096;-86
2022/05/10 04:32:09;;;;;;;26.30;20.67;;;9.60;99.90;;;;;;6238302;23;20012;-85
2022/05/10 04:34:56;;;;;;;31.35;21.15;;;9.60;99.90;;;;;;6216719;23;20280;-87
2022/05/10 04:37:44;;;;;;;23.92;19.80;;;9.60;99.90;;;;;;6236420;23;20009;-85
2022/05/10 04:55:38;;;;;;;25.77;20.80;;;10.10;99.90;;;;;;6214719;23;20036;-86
2022/05/10 05:02:37;;;;;;;24.95;18.67;;;10.60;99.90;;;;;;6216443;23;20024;-88
2022/05/10 05:05:25;;;;;;;23.98;17.35;;;10.90;99.90;;;;;;6214579;23;20368;-88
2022/05/10 05:12:12;;;;;;;20.75;16.52;;;11.30;99.90;;;;;;6213210;23;20409;-89
2022/05/10 05:15:05;;;;;;;21.70;17.85;;;11.30;99.90;;;;;;6192824;23;20132;-89
2022/05/10 05:17:53;;;;;;;23.58;17.48;;;11.30;99.90;;;;;;6215934;23;20091;-88
2022/05/10 05:20:42;;;;;;;23.52;18.23;;;11.40;99.90;;;;;;6218349;23;20024;-87
2022/05/10 05:23:29;;;;;;;23.50;18.67;;;11.40;99.90;;;;;;6223671;23;20127;-86
2022/05/10 05:26:18;;;;;;;22.33;18.13;;;11.60;99.90;;;;;;6223071;23;20108;-87
2022/05/10 05:29:06;;;;;;;21.38;18.10;;;11.80;99.90;;;;;;6220531;23;20038;-85
2022/05/10 05:31:53;;;;;;;23.27;16.88;;;12.00;99.90;;;;;;6219391;23;20028;-86
2022/05/10 05:34:41;;;;;;;23.13;17.58;;;12.20;99.90;;;;;;6222642;23;20029;-85
2022/05/10 05:37:34;;;;;;;20.15;16.00;;;12.50;99.90;;;;;;6230025;23;20032;-87
2022/05/10 05:40:23;;;;;;;24.35;16.35;;;12.80;99.90;;;;;;6221202;23;20452;-87
2022/05/10 05:43:18;;;;;;;18.95;16.00;;;13.10;99.90;;;;;;6220491;23;20036;-87
2022/05/10 05:46:08;;;;;;;22.20;15.32;;;13.30;99.90;;;;;;6219528;23;20036;-87
2022/05/10 05:48:58;;;;;;;19.02;14.93;;;13.60;99.90;;;;;;6218827;23;20111;-87
2022/05/10 05:51:45;;;;;;;16.08;13.65;;;13.80;99.90;;;;;;6217070;23;20029;-89
2022/05/10 05:54:35;;;;;;;19.45;13.38;;;13.90;99.90;;;;;;6218582;23;20044;-86
2022/05/10 05:57:22;;;;;;;14.18;11.90;;;14.00;99.90;;;;;;6216143;23;20032;-86
2022/05/10 06:00:13;;;;;;;14.27;12.63;;;14.10;99.90;;;;;;6215946;23;20020;-84
2022/05/10 06:03:01;;;;;;;13.85;12.40;;;14.10;99.90;;;;;;6215127;23;20423;-87
2022/05/10 06:05:49;;;;;;;16.73;13.50;;;14.00;99.90;;;;;;6193940;23;20024;-86
2022/05/10 06:08:37;;;;;;;18.33;13.18;;;14.00;99.90;;;;;;6215720;23;20083;-88
2022/05/10 06:11:24;;;;;;;23.42;13.45;;;14.10;99.90;;;;;;6191587;23;20032;-87
2022/05/10 06:14:11;;;;;;;16.83;13.30;;;14.20;99.90;;;;;;6210645;23;20033;-89
2022/05/10 06:16:58;;;;;;;16.30;12.40;;;14.30;99.90;;;;;;6210264;23;20032;-86
2022/05/10 06:19:49;;;;;;;20.02;12.77;;;14.40;99.90;;;;;;6217735;23;20016;-88
2022/05/10 06:22:36;;;;;;;13.85;12.30;;;14.60;99.90;;;;;;6216900;23;20024;-88
2022/05/10 06:25:24;;;;;;;14.10;12.50;;;14.80;99.90;;;;;;6215976;23;20039;-89
2022/05/10 06:28:11;;;;;;;15.13;11.57;;;15.10;99.90;;;;;;6216782;23;20016;-86
2022/05/10 06:31:07;;;;;;;17.65;12.10;;;15.30;99.90;;;;;;6220744;23;20388;-87
2022/05/10 06:33:56;;;;;;;16.55;11.57;;;15.50;99.90;;;;;;6193847;23;20404;-87
2022/05/10 06:40:29;;;;;;;15.05;12.25;;;15.70;99.90;;;;;;6215359;23;20111;-88
2022/05/10 06:43:17;;;;;;;11.95;10.68;;;16.00;99.90;;;;;;6214911;23;20389;-89
2022/05/10 06:46:13;;;;;;;13.35;10.23;;;16.40;99.90;;;;;;6195684;23;20020;-85
2022/05/10 06:49:04;;;;;;;11.45;9.98;;;16.60;99.90;;;;;;6215840;23;20028;-87
2022/05/10 06:51:51;;;;;;;11.35;9.98;;;16.90;99.90;;;;;;6217682;23;20028;-88
2022/05/10 06:54:40;;;;;;;11.27;9.15;;;17.20;99.90;;;;;;6214417;23;20029;-86
2022/05/10 06:57:28;;;;;;;12.13;9.45;;;17.60;99.90;;;;;;6196351;23;20027;-91
2022/05/10 07:00:24;;;;;;;9.73;8.57;;;17.70;99.90;;;;;;6218447;23;20039;-92
2022/05/10 07:03:17;;;;;;;12.00;9.55;;;17.90;99.90;;;;;;6228804;23;20021;-88
2022/05/10 07:06:08;;;;;;;;;;;18.10;99.90;;;;;;6235414;23;20024;-91
2022/05/10 07:08:59;;;;;;;12.32;8.27;;;18.40;99.90;;;;;;6228137;23;19916;-90
2022/05/10 07:11:48;;;;;;;9.48;8.52;;;18.60;99.90;;;;;;6225150;23;20040;-93
2022/05/10 07:14:39;;;;;;;11.88;8.68;;;18.60;99.90;;;;;;6219806;23;20040;-86
2022/05/10 07:17:26;;;;;;;9.38;8.18;;;18.70;99.90;;;;;;6214945;23;20025;-86
2022/05/10 07:20:19;;;;;;;10.73;7.55;;;18.80;99.90;;;;;;6213030;23;20031;-87
2022/05/10 07:23:10;;;;;;;10.15;8.00;;;18.80;99.90;;;;;;6215719;23;20025;-88
2022/05/10 07:25:58;;;;;;;8.27;7.45;;;19.10;99.90;;;;;;6213469;23;20021;-86
2022/05/10 07:28:46;;;;;;;8.15;7.15;;;19.40;99.90;;;;;;6194902;23;20039;-87
2022/05/10 07:31:34;;;;;;;8.05;7.25;;;19.40;99.90;;;;;;6216161;23;20025;-87
2022/05/10 07:34:21;;;;;;;8.27;6.95;;;19.50;99.60;;;;;;6193508;23;20025;-87
2022/05/10 07:37:12;;;;;;;11.50;7.70;;;19.70;98.70;;;;;;6213914;23;20095;-85
2022/05/10 07:39:59;;;;;;;7.35;6.40;;;19.70;98.60;;;;;;6214720;23;20325;-86
2022/05/10 07:42:46;;;;;;;9.07;7.05;;;19.80;97.40;;;;;;6195522;23;20059;-86
2022/05/10 07:45:46;;;;;;;10.90;6.63;;;20.00;97.70;;;;;;6213055;23;20024;-84
2022/05/10 07:48:33;;;;;;;7.82;6.88;;;20.50;97.10;;;;;;6212930;23;20460;-86
2022/05/10 07:51:21;;;;;;;13.98;6.65;;;20.40;94.20;;;;;;6216638;23;20334;-87
2022/05/10 07:54:09;;;;;;;8.95;6.70;;;20.90;95.70;;;;;;6217754;23;20415;-85
2022/05/10 07:56:59;;;;;;;10.23;6.50;;;21.20;91.60;;;;;;6192446;23;20024;-86
2022/05/10 07:59:46;;;;;;;6.53;5.78;;;21.30;91.30;;;;;;6192437;23;20024;-86
2022/05/10 08:02:34;;;;;;;8.88;5.95;;;21.60;90.00;;;;;;6216963;23;20099;-86
2022/05/10 08:05:24;;;;;;;7.47;5.60;;;21.70;86.20;;;;;;6214887;23;20028;-85
2022/05/10 08:08:19;;;;;;;8.25;5.82;;;21.40;85.30;;;;;;6216295;23;20024;-86
2022/05/10 08:11:08;;;;;;;7.97;5.80;;;21.60;86.40;;;;;;6214566;23;20647;-86
2022/05/10 08:13:55;;;;;;;6.20;5.38;;;21.80;86.50;;;;;;6194875;23;20444;-85
2022/05/10 08:16:43;;;;;;;7.85;5.95;;;22.10;80.60;;;;;;6217000;23;20128;-87
2022/05/10 08:19:35;;;;;;;7.22;5.70;;;22.70;79.40;;;;;;6198015;23;20063;-87
2022/05/10 08:22:22;;;;;;;8.38;5.32;;;22.90;76.50;;;;;;6219578;23;20436;-84
2022/05/10 08:25:13;;;;;;;6.20;5.53;;;22.80;72.60;;;;;;6221048;23;20087;-85
2022/05/10 08:28:01;;;;;;;7.03;5.60;;;22.80;74.00;;;;;;6219100;23;20091;-85
2022/05/10 08:30:49;;;;;;;8.48;5.65;;;22.60;75.60;;;;;;6215564;23;20028;-85
2022/05/10 08:33:39;;;;;;;11.48;6.22;;;22.80;74.80;;;;;;6195430;23;20052;-87
2022/05/10 08:36:26;;;;;;;7.28;6.10;;;23.00;72.70;;;;;;6216130;23;20040;-87
2022/05/10 08:39:18;;;;;;;6.93;6.32;;;23.60;72.00;;;;;;6214901;23;20032;-86
2022/05/10 08:42:15;;;;;;;14.23;6.18;;;23.70;70.70;;;;;;6215345;23;20048;-86
2022/05/10 08:45:09;;;;;;;8.20;5.95;;;24.30;68.90;;;;;;6194306;23;20086;-84
2022/05/10 08:47:57;;;;;;;10.48;5.50;;;24.30;68.40;;;;;;6216539;23;20024;-87
2022/05/10 08:50:48;;;;;;;6.57;5.53;;;24.30;67.60;;;;;;6214218;23;20024;-86
2022/05/10 08:53:36;;;;;;;6.23;4.90;;;24.60;62.40;;;;;;6216214;23;20043;-86
2022/05/10 08:56:32;;;;;;;5.43;4.93;;;25.20;62.90;;;;;;6210419;23;20025;-88
2022/05/10 08:59:52;;;;;;;5.45;4.50;;;25.70;62.00;;;;;;6215523;23;20024;-86
2022/05/10 09:02:50;;;;;;;5.32;4.65;;;26.30;58.60;;;;;;6195924;23;20020;-88
2022/05/10 09:05:44;;;;;;;5.45;4.70;;;25.60;55.60;;;;;;6217102;23;20028;-87
2022/05/10 09:08:45;;;;;;;5.63;4.85;;;25.20;57.80;;;;;;6220138;23;20020;-88
2022/05/10 09:11:58;;;;;;;6.95;4.97;;;25.40;55.60;;;;;;6224287;23;20086;-87
2022/05/10 09:15:02;;;;;;;6.07;4.28;;;25.40;56.40;;;;;;6218049;23;20032;-87
2022/05/10 09:17:50;;;;;;;8.43;4.55;;;25.80;54.60;;;;;;6213372;23;20433;-86
2022/05/10 09:20:43;;;;;;;4.43;4.03;;;26.00;53.20;;;;;;6217790;23;20021;-86
2022/05/10 09:23:55;;;;;;;5.00;3.90;;;25.40;51.40;;;;;;6219673;23;20036;-87
2022/05/10 09:26:48;;;;;;;5.95;3.88;;;25.50;53.70;;;;;;6216321;23;20025;-87
2022/05/10 09:29:44;;;;;;;4.25;3.85;;;25.50;51.80;;;;;;6217048;23;20060;-88
2022/05/10 09:35:54;;;;;;;5.25;4.32;;;26.00;51.40;;;;;;6158826;23;20028;-86
2022/05/10 09:38:50;;;;;;;5.65;4.03;;;27.30;50.10;;;;;;6170665;23;20039;-88
2022/05/10 09:41:49;;;;;;;5.93;3.60;;;26.60;51.00;;;;;;6214958;23;20119;-85
2022/05/10 09:44:38;;;;;;;4.10;3.65;;;26.70;49.00;;;;;;6213934;23;20028;-86
2022/05/10 09:47:30;;;;;;;4.72;3.35;;;25.90;50.10;;;;;;6217411;23;20419;-87
2022/05/10 09:50:27;;;;;;;3.85;3.45;;;26.10;51.80;;;;;;6214621;23;20328;-86
2022/05/10 09:53:27;;;;;;;4.30;3.20;;;26.90;50.70;;;;;;6218309;23;20082;-89
2022/05/10 09:56:23;;;;;;;4.78;2.83;;;28.10;50.20;;;;;;6216914;23;20112;-87
2022/05/10 09:59:25;;;;;;;4.97;3.05;;;28.60;45.70;;;;;;6216240;23;20090;-88
2022/05/10 10:02:35;;;;;;;4.25;3.05;;;28.10;48.10;;;;;;6215279;23;20020;-87
2022/05/10 10:05:28;;;;;;;5.50;3.08;;;28.10;45.30;;;;;;6215229;23;20051;-88
2022/05/10 10:08:19;;;;;;;5.55;3.75;;;27.50;46.10;;;;;;6217102;23;20155;-88
2022/05/10 10:11:24;;;;;;;3.70;2.67;;;27.90;44.90;;;;;;6215840;23;20056;-84
2022/05/10 10:14:12;;;;;;;7.72;3.28;;;28.40;44.00;;;;;;6217762;23;20028;-85
2022/05/10 10:17:02;;;;;;;5.38;3.08;;;29.00;43.40;;;;;;6194043;23;20028;-86
2022/05/10 10:19:56;;;;;;;6.45;3.05;;;29.50;45.90;;;;;;6217056;23;20032;-85
2022/05/10 10:22:51;;;;;;;4.55;2.78;;;30.20;40.20;;;;;;6215697;23;20025;-86
2022/05/10 10:25:45;;;;;;;5.25;3.30;;;29.50;40.60;;;;;;6213690;23;20040;-87
2022/05/10 10:28:58;;;;;;;3.40;3.10;;;28.70;43.00;;;;;;6215940;23;20407;-86
2022/05/10 10:31:55;;;;;;;4.68;2.95;;;28.50;41.80;;;;;;6181380;23;20029;-85
2022/05/10 10:34:59;;;;;;;7.72;3.20;;;29.30;41.40;;;;;;6213515;23;20040;-89
2022/05/10 10:38:09;;;;;;;2.72;2.50;;;30.50;45.30;;;;;;6217739;23;20036;-88
2022/05/10 10:41:05;;;;;;;3.28;2.80;;;32.00;36.70;;;;;;6216930;23;20028;-89
2022/05/10 10:44:24;;;;;;;2.88;2.60;;;30.20;37.60;;;;;;6213254;23;20079;-87
2022/05/10 10:47:38;;;;;;;7.22;2.85;;;30.90;37.00;;;;;;6215693;23;20063;-89
2022/05/10 10:50:32;;;;;;;4.55;2.95;;;30.30;36.30;;;;;;6215278;23;20025;-88
2022/05/10 10:53:21;;;;;;;2.55;2.22;;;31.10;40.50;;;;;;6217432;23;20048;-90
2022/05/10 10:56:15;;;;;;;2.63;2.33;;;31.90;33.90;;;;;;6216666;23;20025;-89
2022/05/10 10:59:05;;;;;;;4.20;2.53;;;30.60;35.30;;;;;;6194258;23;20021;-87
2022/05/10 11:02:13;;;;;;;3.97;2.63;;;29.50;36.10;;;;;;6214599;23;20071;-86
2022/05/10 11:05:19;;;;;;;3.83;2.50;;;27.90;39.00;;;;;;6218203;23;20083;-84
2022/05/10 11:08:42;;;;;;;5.28;3.22;;;27.30;39.60;;;;;;6215891;23;20431;-87
2022/05/10 11:11:35;;;;;;;4.85;2.72;;;27.30;39.30;;;;;;6219588;23;20032;-86
2022/05/10 11:14:25;;;;;;;3.75;2.65;;;28.20;41.60;;;;;;6221468;23;20029;-85
2022/05/10 11:17:55;;;;;;;3.20;2.40;;;29.40;37.30;;;;;;6219589;23;20430;-85
2022/05/10 11:21:22;;;;;;;2.92;2.30;;;30.70;34.80;;;;;;6187587;23;20100;-84
2022/05/10 11:24:50;;;;;;;5.15;2.10;;;31.20;32.90;;;;;;6221342;23;20033;-88
2022/05/10 11:28:14;;;;;;;5.68;2.10;;;32.60;36.90;;;;;;6069720;23;20027;-87
2022/05/10 11:31:05;;;;;;;2.97;1.85;;;31.60;33.90;;;;;;6185399;23;20028;-86
2022/05/10 11:34:30;;;;;;;4.43;2.30;;;32.70;31.70;;;;;;6220199;23;20032;-87
2022/05/10 11:37:25;;;;;;;4.50;2.50;;;32.10;34.40;;;;;;6218591;23;20028;-87
2022/05/10 11:40:21;;;;;;;3.25;2.25;;;31.30;30.40;;;;;;6220417;23;20328;-88
2022/05/10 11:43:27;;;;;;;2.47;1.95;;;31.20;31.20;;;;;;6219661;23;20095;-89
2022/05/10 11:46:15;;;;;;;2.40;2.10;;;31.50;34.20;;;;;;6195294;23;20021;-89
2022/05/10 11:49:12;;;;;;;2.42;2.22;;;32.70;31.20;;;;;;6218034;23;20502;-89
2022/05/10 11:52:05;;;;;;;4.88;2.20;;;32.90;32.60;;;;;;6216002;23;20051;-87
2022/05/10 11:55:07;;;;;;;3.97;2.60;;;31.40;33.10;;;;;;6217016;23;20348;-87
2022/05/10 11:58:03;;;;;;;4.80;2.80;;;30.30;35.40;;;;;;6214734;23;20106;-87
2022/05/10 12:00:58;;;;;;;2.95;2.58;;;30.00;35.60;;;;;;6215335;23;20123;-88
2022/05/10 12:03:51;;;;;;;2.92;2.47;;;29.70;36.60;;;;;;6215069;23;20116;-88
2022/05/10 12:06:39;;;;;;;2.58;2.38;;;29.70;39.90;;;;;;6217827;23;20031;-89
2022/05/10 12:09:51;;;;;;;2.72;2.42;;;29.90;36.40;;;;;;6214591;23;20024;-87
2022/05/10 12:12:41;;;;;;;3.90;3.00;;;30.10;35.30;;;;;;6194306;23;20427;-88
2022/05/10 12:22:02;;;;;;;3.92;2.42;;;30.60;34.60;;;;;;6215535;23;20020;-88
2022/05/10 12:24:55;;;;;;;3.35;2.97;;;30.50;32.90;;;;;;6216187;23;20408;-86
2022/05/10 12:27:58;;;;;;;3.40;2.58;;;28.70;38.50;;;;;;6195125;23;20108;-88
2022/05/10 12:30:47;;;;;;;;;;;28.90;39.10;;;;;;6217701;23;20035;-87
2022/05/10 12:33:36;;;;;;;5.80;2.95;;;29.30;39.20;;;;;;6214062;23;20320;-88
2022/05/10 12:36:31;;;;;;;4.70;3.15;;;29.30;39.70;;;;;;6214876;23;20028;-87
2022/05/10 12:39:30;;;;;;;4.82;3.30;;;28.60;38.40;;;;;;6216504;23;20029;-86
2022/05/10 12:42:37;;;;;;;3.15;2.75;;;28.50;39.00;;;;;;6213945;23;20419;-88
2022/05/10 12:45:45;;;;;;;6.20;2.80;;;29.00;37.00;;;;;;6216506;23;20066;-88
2022/05/10 12:49:03;;;;;;;3.25;2.95;;;29.00;37.20;;;;;;6215099;23;20020;-87
2022/05/10 12:52:20;;;;;;;7.20;3.08;;;30.70;37.50;;;;;;6108495;23;20029;-88
2022/05/10 12:55:16;;;;;;;3.88;2.70;;;31.00;34.80;;;;;;6215918;23;20025;-89
2022/05/10 12:58:17;;;;;;;3.28;2.97;;;30.70;35.50;;;;;;6195660;23;20020;-88
2022/05/10 13:01:06;;;;;;;4.57;3.13;;;29.90;35.90;;;;;;6193057;23;20080;-88
2022/05/10 13:04:20;;;;;;;3.58;3.28;;;29.60;36.80;;;;;;6217006;23;20048;-88
2022/05/10 13:07:37;;;;;;;5.20;2.90;;;29.00;37.60;;;;;;6194424;23;20084;-89
2022/05/10 13:10:24;;;;;;;3.50;2.88;;;28.60;40.10;;;;;;6216245;23;20021;-89
2022/05/10 13:13:22;;;;;;;3.50;2.78;;;29.10;37.60;;;;;;6214968;23;20292;-86
2022/05/10 13:16:17;;;;;;;3.65;2.90;;;29.30;36.80;;;;;;6216673;23;20048;-87
2022/05/10 13:19:06;;;;;;;7.72;2.95;;;29.20;38.00;;;;;;6194023;23;20029;-89
2022/05/10 13:21:55;;;;;;;4.93;3.33;;;28.90;37.30;;;;;;6195359;23;20029;-90
2022/05/10 13:24:44;;;;;;;4.03;3.30;;;28.10;39.20;;;;;;6218414;23;20055;-88
2022/05/10 13:27:42;;;;;;;5.10;3.30;;;27.20;42.20;;;;;;6227349;23;20025;-88
2022/05/10 13:30:31;;;;;;;2.95;2.75;;;27.40;42.00;;;;;;6204879;23;20032;-86
2022/05/10 13:33:33;;;;;;;3.53;2.95;;;28.60;39.80;;;;;;6224301;23;20029;-88
2022/05/10 13:36:23;;;;;;;4.93;2.70;;;29.60;39.40;;;;;;6218384;23;20035;-88
2022/05/10 13:39:16;;;;;;;3.03;2.70;;;30.10;37.30;;;;;;6219140;23;20075;-87
2022/05/10 13:42:09;;;;;;;5.32;3.30;;;30.30;37.30;;;;;;6221708;23;20031;-87
2022/05/10 13:44:57;;;;;;;5.45;3.05;;;29.90;35.20;;;;;;6222531;23;20092;-86
2022/05/10 13:47:48;;;;;;;4.75;2.95;;;28.80;38.50;;;;;;6193375;23;20036;-86
2022/05/10 13:50:41;;;;;;;4.25;2.80;;;29.70;36.80;;;;;;6216010;23;20020;-88
2022/05/10 13:53:31;;;;;;;3.42;2.58;;;30.80;40.20;;;;;;6218063;23;20056;-87
2022/05/10 13:56:25;;;;;;;3.75;2.55;;;31.20;38.50;;;;;;6193792;23;20028;-87
2022/05/10 13:59:13;;;;;;;3.08;2.63;;;31.40;39.10;;;;;;6194917;23;20040;-87
2022/05/10 14:02:05;;;;;;;5.03;2.72;;;32.30;36.10;;;;;;6217194;23;20024;-87
2022/05/10 14:04:55;;;;;;;5.93;2.95;;;33.10;32.70;;;;;;6218942;23;20024;-88
2022/05/10 14:07:48;;;;;;;3.42;2.50;;;32.90;33.70;;;;;;6215355;23;20020;-87
2022/05/10 14:10:37;;;;;;;2.97;2.63;;;32.80;32.50;;;;;;6217882;23;20052;-87
2022/05/10 14:13:27;;;;;;;3.42;2.90;;;31.80;33.40;;;;;;6215812;23;20036;-84
2022/05/10 14:16:34;;;;;;;3.13;2.80;;;31.50;35.10;;;;;;6214486;23;20056;-88
2022/05/10 14:19:31;;;;;;;2.97;2.70;;;30.70;33.70;;;;;;6216461;23;20029;-87
2022/05/10 14:22:24;;;;;;;5.90;2.70;;;30.50;35.90;;;;;;6218042;23;20028;-87
2022/05/10 14:25:11;;;;;;;3.10;2.80;;;31.20;33.90;;;;;;6218724;23;20029;-87
2022/05/10 14:28:05;;;;;;;3.22;2.90;;;31.50;37.30;;;;;;6218254;23;20025;-87
2022/05/10 14:30:55;;;;;;;7.28;2.90;;;32.00;32.80;;;;;;6216693;23;20067;-88
2022/05/10 14:33:53;;;;;;;6.72;2.75;;;31.00;33.40;;;;;;6216931;23;20434;-88
2022/05/10 14:36:45;;;;;;;4.13;3.17;;;29.80;35.90;;;;;;6198077;23;20025;-86
2022/05/10 14:39:37;;;;;;;3.15;2.95;;;29.40;37.20;;;;;;6217216;23;20035;-88
2022/05/10 14:42:30;;;;;;;7.05;3.10;;;29.30;37.80;;;;;;6218477;23;20020;-86
2022/05/10 14:45:24;;;;;;;3.55;2.95;;;29.10;38.30;;;;;;6218600;23;20028;-87
2022/05/10 14:48:28;;;;;;;4.10;2.97;;;28.40;39.60;;;;;;6195213;23;20404;-88
2022/05/10 14:51:40;;;;;;;8.57;3.40;;;28.00;39.90;;;;;;6218180;23;20021;-88
2022/05/10 14:54:41;;;;;;;7.28;3.70;;;26.70;41.10;;;;;;6218041;23;20020;-87
2022/05/10 14:57:42;;;;;;;8.00;3.20;;;26.50;41.30;;;;;;6214278;23;20356;-86
2022/05/10 15:00:39;;;;;;;7.50;3.72;;;26.80;41.70;;;;;;6193891;23;20021;-87
2022/05/10 15:03:30;;;;;;;3.95;3.20;;;27.40;40.90;;;;;;6217700;23;20020;-87
2022/05/10 15:06:18;;;;;;;5.10;2.97;;;27.40;40.60;;;;;;6217954;23;20100;-88
2022/05/10 15:09:08;;;;;;;4.68;3.45;;;27.10;39.80;;;;;;6214329;23;20025;-86
2022/05/10 15:15:06;;;;;;;4.60;2.72;;;27.00;45.30;;;;;;6216741;23;20098;-88
2022/05/10 15:21:01;;;;;;;6.35;3.28;;;27.70;41.40;;;;;;6216528;23;20028;-88
2022/05/10 15:23:48;;;;;;;4.57;3.05;;;27.90;40.50;;;;;;6195651;23;20036;-87
2022/05/10 15:26:51;;;;;;;4.57;3.00;;;27.80;40.20;;;;;;6192575;23;20024;-87
2022/05/10 15:29:42;;;;;;;3.15;2.85;;;27.50;41.30;;;;;;6216206;23;20024;-88
2022/05/10 15:32:29;;;;;;;5.78;3.17;;;27.20;42.00;;;;;;6223040;23;20043;-89
2022/05/10 15:35:17;;;;;;;5.93;3.08;;;27.00;41.20;;;;;;6234328;23;20036;-87
2022/05/10 15:38:09;;;;;;;5.32;3.40;;;26.60;43.40;;;;;;6212224;23;20086;-87
2022/05/10 15:40:56;;;;;;;5.07;3.33;;;26.50;47.90;;;;;;6208595;23;20025;-87
2022/05/10 15:43:43;;;;;;;8.75;3.83;;;26.30;48.80;;;;;;6225112;23;20032;-87